createdAt,value
2018-06-24T00:01:08.435Z,102104.38
2018-06-24T00:03:37.847Z,102104.44
2018-06-24T00:06:07.433Z,102110.56
2018-06-24T00:08:36.982Z,102108.69
2018-06-24T00:11:06.493Z,102108.77
2018-06-24T00:13:35.992Z,102105.06
2018-06-24T00:16:05.672Z,102105.66
2018-06-24T00:18:35.137Z,102102.70
2018-06-24T00:21:04.605Z,102103.69
2018-06-24T00:23:34.064Z,102111.69
2018-06-24T00:26:03.506Z,102101.66
2018-06-24T00:28:32.934Z,102097.11
2018-06-24T00:31:02.363Z,102084.37
2018-06-24T00:33:31.833Z,102086.89
2018-06-24T00:36:01.360Z,102079.28
2018-06-24T00:38:30.775Z,102076.27
2018-06-24T00:41:00.283Z,102076.80
2018-06-24T00:43:29.874Z,102067.13
2018-06-24T00:45:59.289Z,102070.37
2018-06-24T00:48:28.786Z,102057.42
2018-06-24T00:50:58.293Z,102045.52
2018-06-24T00:53:27.816Z,102043.92
2018-06-24T00:55:56.954Z,102035.11
2018-06-24T00:58:26.498Z,102031.91
2018-06-24T01:00:56.016Z,102034.27
2018-06-24T01:03:25.486Z,102044.85
2018-06-24T01:05:54.971Z,102041.67
2018-06-24T01:08:24.474Z,102051.47
2018-06-24T01:10:53.949Z,102054.62
2018-06-24T01:13:23.379Z,102047.98
2018-06-24T01:15:52.824Z,102043.67
2018-06-24T01:18:22.429Z,102048.04
2018-06-24T01:20:51.962Z,102047.48
2018-06-24T01:23:21.424Z,102047.61
2018-06-24T01:25:50.859Z,102053.59
2018-06-24T01:28:20.416Z,102043.29
2018-06-24T01:30:49.878Z,102043.86
2018-06-24T01:33:19.392Z,102040.56
2018-06-24T01:35:48.933Z,102036.31
2018-06-24T01:38:18.511Z,102031.82
2018-06-24T01:40:47.980Z,102033.82
2018-06-24T01:43:17.414Z,102033.99
2018-06-24T01:45:47.445Z,102033.95
2018-06-24T01:48:16.589Z,102035.48
2018-06-24T01:50:46.041Z,102026.05
2018-06-24T01:53:15.475Z,102025.69
2018-06-24T01:55:45.060Z,102025.08
2018-06-24T01:58:14.476Z,102013.86
2018-06-24T02:00:43.919Z,102013.22
2018-06-24T02:03:13.425Z,102017.34
2018-06-24T02:05:43.428Z,102006.73
2018-06-24T02:08:12.930Z,102006.31
2018-06-24T02:10:42.366Z,102009.36
2018-06-24T02:13:11.843Z,102013.30
2018-06-24T02:15:41.247Z,102013.03
2018-06-24T02:18:10.676Z,102011.83
2018-06-24T02:20:40.088Z,102019.95
2018-06-24T02:23:09.628Z,102022.17
2018-06-24T02:25:39.164Z,102015.71
2018-06-24T02:28:08.611Z,102022.29
2018-06-24T02:30:38.110Z,102023.05
2018-06-24T02:33:07.712Z,102013.82
2018-06-24T02:35:37.250Z,102019.27
2018-06-24T02:38:06.866Z,102017.45
2018-06-24T02:40:36.524Z,102021.76
2018-06-24T02:43:06.027Z,102020.33
2018-06-24T02:45:35.472Z,102017.30
2018-06-24T02:48:04.922Z,102019.03
2018-06-24T02:50:34.383Z,102019.03
2018-06-24T02:53:04.175Z,102018.92
2018-06-24T02:55:33.602Z,102013.37
2018-06-24T02:58:03.063Z,102007.01
2018-06-24T03:00:33.519Z,102014.56
2018-06-24T03:03:02.998Z,102015.18
2018-06-24T03:05:32.447Z,102014.36
2018-06-24T03:08:01.851Z,102011.59
2018-06-24T03:10:31.388Z,102015.48
2018-06-24T03:13:00.924Z,102014.47
2018-06-24T03:15:30.345Z,102009.56
2018-06-24T03:17:59.798Z,102013.41
2018-06-24T03:20:29.329Z,102010.69
2018-06-24T03:22:58.843Z,102020.16
2018-06-24T03:25:28.250Z,102019.02
2018-06-24T03:27:57.748Z,102013.50
2018-06-24T03:30:27.167Z,102014.56
2018-06-24T03:32:56.577Z,102014.45
2018-06-24T03:35:26.003Z,102015.19
2018-06-24T03:37:55.536Z,102019.75
2018-06-24T03:40:25.058Z,102016.12
2018-06-24T03:42:54.476Z,102010.19
2018-06-24T03:45:24.005Z,102012.58
2018-06-24T03:47:53.581Z,102018.50
2018-06-24T03:50:23.040Z,102026.66
2018-06-24T03:52:52.628Z,102021.59
2018-06-24T03:55:22.157Z,102013.19
2018-06-24T03:57:51.748Z,102020.92
2018-06-24T04:00:21.167Z,102030.05
2018-06-24T04:02:50.592Z,102016.70
2018-06-24T04:05:20.192Z,102010.09
2018-06-24T04:07:49.814Z,102015.98
2018-06-24T04:10:19.289Z,102028.63
2018-06-24T04:12:48.740Z,102020.06
2018-06-24T04:15:18.248Z,102025.87
2018-06-24T04:17:47.670Z,102020.70
2018-06-24T04:20:17.102Z,102022.41
2018-06-24T04:22:46.893Z,102022.67
2018-06-24T04:25:16.596Z,102020.33
2018-06-24T04:27:46.157Z,102027.88
2018-06-24T04:30:15.311Z,102016.89
2018-06-24T04:32:44.943Z,102025.81
2018-06-24T04:35:14.341Z,102032.80
2018-06-24T04:37:44.025Z,102034.67
2018-06-24T04:40:13.478Z,102033.91
2018-06-24T04:42:43.054Z,102043.78
2018-06-24T04:45:12.761Z,102045.14
2018-06-24T04:47:42.501Z,102051.45
2018-06-24T04:50:11.948Z,102049.52
2018-06-24T04:52:41.492Z,102044.23
2018-06-24T04:55:11.010Z,102047.86
2018-06-24T04:57:40.468Z,102053.98
2018-06-24T05:00:10.083Z,102053.34
2018-06-24T05:02:39.656Z,102052.27
2018-06-24T05:05:09.186Z,102046.04
2018-06-24T05:07:39.236Z,102046.94
2018-06-24T05:10:08.744Z,102052.59
2018-06-24T05:12:38.221Z,102052.53
2018-06-24T05:15:07.711Z,102054.82
2018-06-24T05:17:37.335Z,102049.67
2018-06-24T05:20:06.845Z,102060.64
2018-06-24T05:22:36.474Z,102049.69
2018-06-24T05:25:06.076Z,102057.59
2018-06-24T05:27:35.584Z,102060.16
2018-06-24T05:30:05.526Z,102061.23
2018-06-24T05:32:35.106Z,102059.75
2018-06-24T05:35:05.474Z,102061.02
2018-06-24T05:37:35.762Z,102057.34
2018-06-24T05:40:05.407Z,102058.45
2018-06-24T05:42:34.883Z,102059.75
2018-06-24T05:45:05.650Z,102065.16
2018-06-24T05:47:36.176Z,102068.24
2018-06-24T05:50:06.455Z,102064.74
2018-06-24T05:52:36.069Z,102068.34
2018-06-24T05:55:13.895Z,102062.62
2018-06-24T05:57:52.508Z,102058.30
2018-06-24T06:00:41.603Z,102062.92
2018-06-24T06:03:27.794Z,102071.64
2018-06-24T06:06:10.243Z,102073.82
2018-06-24T06:08:53.573Z,102069.48
2018-06-24T06:11:43.689Z,102063.23
2018-06-24T06:14:31.907Z,102063.16
2018-06-24T06:17:18.514Z,102075.14
2018-06-24T06:20:04.055Z,102074.88
2018-06-24T06:22:43.024Z,102074.63
2018-06-24T06:25:23.578Z,102082.22
2018-06-24T06:28:09.962Z,102072.53
2018-06-24T06:30:47.638Z,102077.09
2018-06-24T06:33:36.469Z,102084.77
2018-06-24T06:36:15.703Z,102092.28
2018-06-24T06:39:05.301Z,102090.54
2018-06-24T06:42:16.505Z,102095.75
2018-06-24T06:45:01.482Z,102105.13
2018-06-24T06:53:10.863Z,102105.89
2018-06-24T06:55:47.073Z,102108.15
2018-06-24T06:58:27.641Z,102103.81
2018-06-24T07:01:08.281Z,102101.39
2018-06-24T07:03:53.620Z,102112.70
2018-06-24T07:06:31.012Z,102111.96
2018-06-24T07:09:13.444Z,102103.61
2018-06-24T07:11:56.059Z,102108.55
2018-06-24T07:14:39.912Z,102102.34
2018-06-24T07:17:28.450Z,102110.69
2018-06-24T07:20:09.480Z,102115.11
2018-06-24T07:22:55.739Z,102123.19
2018-06-24T07:25:37.472Z,102118.50
2018-06-24T07:28:28.548Z,102114.75
2018-06-24T07:31:34.098Z,102110.59
2018-06-24T07:34:14.662Z,102117.64
2018-06-24T07:37:15.501Z,102119.77
2018-06-24T07:40:02.104Z,102114.89
2018-06-24T07:43:02.888Z,102111.67
2018-06-24T07:45:47.561Z,102116.95
2018-06-24T07:48:34.823Z,102113.70
2018-06-24T07:51:16.806Z,102113.72
2018-06-24T07:54:33.237Z,102115.92
2018-06-24T08:00:14.007Z,102111.27
2018-06-24T08:02:50.372Z,102110.28
2018-06-24T08:05:31.997Z,102109.34
2018-06-24T08:08:12.371Z,102108.99
2018-06-24T08:10:58.991Z,102111.13
2018-06-24T08:13:43.562Z,102108.99
2018-06-24T08:16:39.234Z,102106.45
2018-06-24T08:19:18.059Z,102099.86
2018-06-24T08:21:58.791Z,102100.15
2018-06-24T08:24:36.622Z,102103.30
2018-06-24T08:27:16.022Z,102103.84
2018-06-24T08:29:54.703Z,102098.52
2018-06-24T08:32:42.475Z,102104.73
2018-06-24T08:35:21.386Z,102108.55
2018-06-24T08:38:07.349Z,102110.16
2018-06-24T08:40:43.243Z,102114.11
2018-06-24T08:43:34.694Z,102115.13
2018-06-24T08:46:16.704Z,102108.09
2018-06-24T08:48:58.726Z,102115.27
2018-06-24T08:51:37.078Z,102110.48
2018-06-24T08:54:20.387Z,102112.31
2018-06-24T08:57:00.242Z,102113.73
2018-06-24T08:59:37.434Z,102124.61
2018-06-24T09:02:18.426Z,102123.13
2018-06-24T09:04:59.985Z,102124.84
2018-06-24T09:07:39.822Z,102132.48
2018-06-24T09:10:24.799Z,102133.92
2018-06-24T09:13:08.008Z,102136.84
2018-06-24T09:18:42.234Z,102127.80
2018-06-24T09:21:21.514Z,102134.39
2018-06-24T09:23:57.546Z,102124.47
2018-06-24T09:26:39.726Z,102131.24
2018-06-24T09:29:18.394Z,102124.87
2018-06-24T09:31:59.625Z,102123.81
2018-06-24T09:34:46.590Z,102122.52
2018-06-24T09:37:26.060Z,102112.88
2018-06-24T09:40:08.369Z,102109.99
2018-06-24T09:42:53.440Z,102111.58
2018-06-24T09:45:37.604Z,102113.44
2018-06-24T09:48:27.183Z,102122.85
2018-06-24T09:51:10.211Z,102126.39
2018-06-24T09:54:21.286Z,102116.49
2018-06-24T09:57:30.969Z,102120.88
2018-06-24T10:00:16.173Z,102125.23
2018-06-24T10:02:59.493Z,102121.64
2018-06-24T10:06:01.813Z,102118.63
2018-06-24T10:08:45.257Z,102124.33
2018-06-24T10:11:25.710Z,102116.16
2018-06-24T10:14:24.491Z,102121.24
2018-06-24T10:17:04.354Z,102110.09
2018-06-24T10:19:48.963Z,102109.88
2018-06-24T10:22:33.219Z,102107.14
2018-06-24T10:25:16.422Z,102095.70
2018-06-24T10:27:58.678Z,102095.71
2018-06-24T10:30:54.784Z,102094.89
2018-06-24T10:36:41.479Z,102108.11
2018-06-24T10:39:30.115Z,102115.61
2018-06-24T10:42:07.330Z,102117.80
2018-06-24T10:44:44.704Z,102109.38
2018-06-24T10:50:20.344Z,102119.93
2018-06-24T10:53:12.713Z,102116.23
2018-06-24T10:55:50.315Z,102117.52
2018-06-24T10:58:28.631Z,102112.84
2018-06-24T11:01:11.112Z,102109.13
2018-06-24T11:04:02.501Z,102113.30
2018-06-24T11:06:43.064Z,102106.72
2018-06-24T11:09:26.431Z,102104.91
2018-06-24T11:12:18.882Z,102103.66
2018-06-24T11:15:01.031Z,102097.70
2018-06-24T11:17:38.099Z,102105.43
2018-06-24T11:20:19.889Z,102100.17
2018-06-24T11:22:49.615Z,102100.44
2018-06-24T11:25:19.168Z,102104.39
2018-06-24T11:27:48.598Z,102096.12
2018-06-24T11:30:18.040Z,102095.02
2018-06-24T11:32:47.581Z,102092.66
2018-06-24T11:35:17.210Z,102092.53
2018-06-24T11:37:47.266Z,102094.60
2018-06-24T11:40:16.912Z,102091.24
2018-06-24T11:42:46.766Z,102077.78
2018-06-24T11:45:16.618Z,102079.64
2018-06-24T11:47:46.649Z,102083.35
2018-06-24T11:50:16.275Z,102075.95
2018-06-24T11:52:48.816Z,102082.62
2018-06-24T11:55:23.538Z,102084.02
2018-06-24T11:57:53.107Z,102089.52
2018-06-24T12:00:22.600Z,102081.98
2018-06-24T12:02:52.133Z,102085.03
2018-06-24T12:05:21.745Z,102084.69
2018-06-24T12:07:51.245Z,102084.00
2018-06-24T12:10:20.650Z,102069.71
2018-06-24T12:12:50.698Z,102079.88
2018-06-24T12:15:20.164Z,102077.39
2018-06-24T12:17:50.521Z,102077.96
2018-06-24T12:20:20.052Z,102073.53
2018-06-24T12:22:49.594Z,102074.36
2018-06-24T12:25:18.997Z,102076.67
2018-06-24T12:27:48.558Z,102075.77
2018-06-24T12:30:18.074Z,102075.89
2018-06-24T12:32:47.599Z,102070.53
2018-06-24T12:35:17.235Z,102068.09
2018-06-24T12:37:46.768Z,102069.30
2018-06-24T12:40:20.518Z,102070.32
2018-06-24T12:42:50.117Z,102063.94
2018-06-24T12:45:19.285Z,102062.66
2018-06-24T12:47:48.830Z,102059.10
2018-06-24T12:50:18.474Z,102052.91
2018-06-24T12:52:48.017Z,102059.81
2018-06-24T12:55:18.032Z,102048.66
2018-06-24T12:57:47.800Z,102052.45
2018-06-24T13:00:17.820Z,102053.52
2018-06-24T13:02:46.827Z,102051.23
2018-06-24T13:05:16.823Z,102045.78
2018-06-24T13:07:46.366Z,102051.98
2018-06-24T13:10:15.829Z,102053.56
2018-06-24T13:12:45.290Z,102054.26
2018-06-24T13:15:14.757Z,102047.99
2018-06-24T13:17:44.242Z,102051.97
2018-06-24T13:20:13.831Z,102049.74
2018-06-24T13:22:43.906Z,102044.22
2018-06-24T13:25:14.704Z,102046.61
2018-06-24T13:27:44.350Z,102044.50
2018-06-24T13:30:13.902Z,102038.17
2018-06-24T13:32:43.506Z,102037.09
2018-06-24T13:35:12.960Z,102045.09
2018-06-24T13:37:42.494Z,102037.64
2018-06-24T13:40:12.031Z,102035.36
2018-06-24T13:42:41.625Z,102038.52
2018-06-24T13:45:11.118Z,102036.92
2018-06-24T13:47:40.573Z,102040.88
2018-06-24T13:50:09.734Z,102044.17
2018-06-24T13:52:39.253Z,102040.09
2018-06-24T13:55:08.705Z,102045.53
2018-06-24T13:57:38.297Z,102050.19
2018-06-24T14:00:07.862Z,102041.75
2018-06-24T14:02:37.296Z,102043.35
2018-06-24T14:05:06.832Z,102042.54
2018-06-24T14:07:36.394Z,102048.58
2018-06-24T14:10:06.735Z,102038.41
2018-06-24T14:12:36.023Z,102044.34
2018-06-24T14:15:05.774Z,102045.27
2018-06-24T14:17:35.487Z,102041.69
2018-06-24T14:20:05.067Z,102045.53
2018-06-24T14:22:34.361Z,102038.30
2018-06-24T14:25:04.028Z,102044.45
2018-06-24T14:27:33.617Z,102046.78
2018-06-24T14:30:03.116Z,102047.83
2018-06-24T14:32:32.668Z,102045.56
2018-06-24T14:35:02.201Z,102049.29
2018-06-24T14:37:31.717Z,102049.64
2018-06-24T14:40:01.361Z,102051.17
2018-06-24T14:42:30.811Z,102047.64
2018-06-24T14:45:00.290Z,102044.45
2018-06-24T14:47:29.899Z,102039.66
2018-06-24T14:49:59.390Z,102050.08
2018-06-24T14:52:28.815Z,102047.21
2018-06-24T14:54:58.385Z,102049.02
2018-06-24T14:57:27.984Z,102050.74
2018-06-24T14:59:57.619Z,102051.11
2018-06-24T15:02:27.175Z,102050.09
2018-06-24T15:04:56.631Z,102049.92
2018-06-24T15:07:26.085Z,102047.70
2018-06-24T15:09:55.558Z,102038.84
2018-06-24T15:12:25.075Z,102038.36
2018-06-24T15:14:54.672Z,102038.36
2018-06-24T15:17:24.424Z,102031.47
2018-06-24T15:19:54.015Z,102037.60
2018-06-24T15:22:23.557Z,102031.50
2018-06-24T15:24:53.243Z,102035.66
2018-06-24T15:27:22.836Z,102028.30
2018-06-24T15:29:52.271Z,102030.77
2018-06-24T15:32:21.963Z,102038.35
2018-06-24T15:34:51.601Z,102040.05
2018-06-24T15:37:21.241Z,102039.19
2018-06-24T15:39:50.797Z,102040.43
2018-06-24T15:42:21.216Z,102043.00
2018-06-24T15:44:50.720Z,102045.05
2018-06-24T15:47:30.163Z,102032.20
2018-06-24T15:49:59.727Z,102033.78
2018-06-24T15:52:29.290Z,102022.00
2018-06-24T15:54:58.804Z,102031.52
2018-06-24T15:57:28.325Z,102022.82
2018-06-24T15:59:57.855Z,102021.69
2018-06-24T16:02:27.259Z,102026.83
2018-06-24T16:04:56.795Z,102022.77
2018-06-24T16:07:26.322Z,102023.80
2018-06-24T16:09:55.780Z,102024.39
2018-06-24T16:12:25.267Z,102021.24
2018-06-24T16:14:54.870Z,102021.17
2018-06-24T16:17:24.392Z,102013.86
2018-06-24T16:19:53.963Z,102016.37
2018-06-24T16:22:23.456Z,102014.02
2018-06-24T16:24:53.437Z,102011.34
2018-06-24T16:27:23.021Z,102007.02
2018-06-24T16:29:53.324Z,102012.94
2018-06-24T16:32:23.863Z,102014.67
2018-06-24T16:34:53.398Z,102011.20
2018-06-24T16:37:22.936Z,102011.84
2018-06-24T16:39:52.440Z,102003.41
2018-06-24T16:42:21.894Z,102007.30
2018-06-24T16:44:51.479Z,102008.70
2018-06-24T16:47:21.167Z,102010.36
2018-06-24T16:49:50.655Z,102008.90
2018-06-24T16:52:20.535Z,102009.61
2018-06-24T16:54:50.149Z,102011.66
2018-06-24T16:57:19.943Z,102008.81
2018-06-24T16:59:49.447Z,102013.89
2018-06-24T17:02:18.936Z,102013.67
2018-06-24T17:04:48.531Z,102021.77
2018-06-24T17:07:18.232Z,102023.44
2018-06-24T17:09:47.753Z,102019.59
2018-06-24T17:12:17.180Z,102015.06
2018-06-24T17:14:46.687Z,102018.01
2018-06-24T17:17:16.260Z,102020.97
2018-06-24T17:19:45.812Z,102016.48
2018-06-24T17:22:15.336Z,102011.02
2018-06-24T17:24:44.906Z,102013.07
2018-06-24T17:27:14.421Z,102016.86
2018-06-24T17:29:44.004Z,102011.48
2018-06-24T17:32:13.475Z,102013.82
2018-06-24T17:34:43.975Z,102016.77
2018-06-24T17:37:13.527Z,102008.84
2018-06-24T17:39:43.108Z,102008.58
2018-06-24T17:42:13.325Z,102013.06
2018-06-24T17:44:43.675Z,102017.31
2018-06-24T17:47:15.005Z,102011.32
2018-06-24T17:49:44.693Z,102012.12
2018-06-24T17:52:14.141Z,102009.92
2018-06-24T17:54:43.608Z,102014.33
2018-06-24T17:57:13.076Z,102011.41
2018-06-24T17:59:42.637Z,102004.25
2018-06-24T18:02:12.460Z,102005.84
2018-06-24T18:04:45.456Z,101999.76
2018-06-24T18:07:14.875Z,101997.34
2018-06-24T18:09:44.444Z,101999.66
2018-06-24T18:12:13.987Z,101994.31
2018-06-24T18:14:43.580Z,101992.80
2018-06-24T18:17:13.037Z,101996.92
2018-06-24T18:19:42.522Z,101997.75
2018-06-24T18:22:12.047Z,102001.59
2018-06-24T18:24:41.675Z,101991.97
2018-06-24T18:27:11.078Z,101991.06
2018-06-24T18:29:40.521Z,101989.36
2018-06-24T18:32:10.063Z,101984.94
2018-06-24T18:34:39.542Z,101980.55
2018-06-24T18:37:09.135Z,101979.97
2018-06-24T18:39:38.851Z,101983.58
2018-06-24T18:42:08.444Z,101978.50
2018-06-24T18:44:37.916Z,101985.34
2018-06-24T18:47:07.490Z,101983.69
2018-06-24T18:49:37.182Z,101989.67
2018-06-24T18:52:06.972Z,101988.98
2018-06-24T18:54:36.412Z,101988.47
2018-06-24T18:57:05.934Z,101996.84
2018-06-24T18:59:35.504Z,101997.69
2018-06-24T19:02:05.188Z,101992.30
2018-06-24T19:04:34.625Z,101997.55
2018-06-24T19:07:07.858Z,102007.66
2018-06-24T19:09:37.996Z,102000.52
2018-06-24T19:12:08.397Z,101997.28
2018-06-24T19:14:39.175Z,102001.02
2018-06-24T19:17:10.173Z,102010.63
2018-06-24T19:19:40.639Z,102008.23
2018-06-24T19:22:12.058Z,102017.09
2018-06-24T19:24:42.600Z,102017.38
2018-06-24T19:27:12.881Z,102008.71
2018-06-24T19:29:43.945Z,102012.39
2018-06-24T19:32:13.914Z,102013.25
2018-06-24T19:34:44.174Z,102010.05
2018-06-24T19:37:14.321Z,102013.05
2018-06-24T19:39:43.849Z,102015.25
2018-06-24T19:42:14.248Z,102014.41
2018-06-24T19:44:44.330Z,102017.98
2018-06-24T19:47:15.368Z,102028.89
2018-06-24T19:49:45.770Z,102033.41
2018-06-24T19:52:16.369Z,102031.16
2018-06-24T19:54:45.898Z,102032.77
2018-06-24T20:00:13.355Z,102038.36
2018-06-24T20:02:43.527Z,102042.31
2018-06-24T20:05:13.650Z,102039.68
2018-06-24T20:07:45.451Z,102047.89
2018-06-24T20:10:14.907Z,102052.59
2018-06-24T20:12:45.346Z,102051.84
2018-06-24T20:15:15.949Z,102055.45
2018-06-24T20:17:46.495Z,102059.41
2018-06-24T20:20:17.091Z,102046.40
2018-06-24T20:22:47.477Z,102037.83
2018-06-24T20:25:18.951Z,102046.31
2018-06-24T20:27:50.790Z,102051.75
2018-06-24T20:30:21.111Z,102053.38
2018-06-24T20:32:51.559Z,102055.59
2018-06-24T20:35:22.739Z,102060.70
2018-06-24T20:37:53.284Z,102054.98
2018-06-24T20:40:24.632Z,102058.30
2018-06-24T20:42:55.443Z,102055.70
2018-06-24T20:45:25.559Z,102060.31
2018-06-24T20:47:54.957Z,102064.04
2018-06-24T20:50:25.310Z,102058.45
2018-06-24T20:52:55.812Z,102063.15
2018-06-24T20:55:25.478Z,102061.67
2018-06-24T20:57:56.136Z,102058.55
2018-06-24T21:00:25.682Z,102055.20
2018-06-24T21:02:55.291Z,102056.00
2018-06-24T21:05:24.961Z,102057.92
2018-06-24T21:07:54.602Z,102057.04
2018-06-24T21:10:24.093Z,102058.16
2018-06-24T21:12:54.000Z,102066.47
2018-06-24T21:15:23.764Z,102065.98
2018-06-24T21:17:53.516Z,102076.91
2018-06-24T21:20:23.080Z,102069.59
2018-06-24T21:22:52.525Z,102071.08
2018-06-24T21:25:22.134Z,102078.72
2018-06-24T21:27:51.643Z,102078.29
2018-06-24T21:30:21.081Z,102077.06
2018-06-24T21:35:28.809Z,102080.83
2018-06-24T21:37:58.373Z,102071.22
2018-06-24T21:40:27.864Z,102069.73
2018-06-24T21:42:57.356Z,102074.70
2018-06-24T21:45:26.993Z,102069.86
2018-06-24T21:47:57.134Z,102072.23
2018-06-24T21:50:26.640Z,102065.27
2018-06-24T21:52:56.095Z,102065.85
2018-06-24T21:55:25.607Z,102067.52
2018-06-24T21:57:55.124Z,102071.23
2018-06-24T22:00:24.619Z,102075.88
2018-06-24T22:02:54.999Z,102073.84
2018-06-24T22:05:24.539Z,102070.05
2018-06-24T22:07:54.047Z,102077.23
2018-06-24T22:10:23.697Z,102075.52
2018-06-24T22:12:53.131Z,102074.50
2018-06-24T22:15:22.609Z,102080.02
2018-06-24T22:17:52.026Z,102077.91
2018-06-24T22:20:21.516Z,102071.16
2018-06-24T22:22:51.021Z,102078.47
2018-06-24T22:25:20.676Z,102074.76
2018-06-24T22:27:50.254Z,102078.40
2018-06-24T22:30:19.734Z,102076.23
2018-06-24T22:32:49.177Z,102078.28
2018-06-24T22:35:18.714Z,102077.34
2018-06-24T22:37:48.146Z,102077.42
2018-06-24T22:40:17.652Z,102077.23
2018-06-24T22:42:47.200Z,102078.59
2018-06-24T22:45:16.758Z,102072.48
2018-06-24T22:47:46.186Z,102073.14
2018-06-24T22:50:15.602Z,102074.50
2018-06-24T22:52:45.134Z,102071.90
2018-06-24T22:55:14.786Z,102074.63
2018-06-24T22:57:44.196Z,102077.05
2018-06-24T23:00:18.545Z,102082.74
2018-06-24T23:02:47.674Z,102085.97
2018-06-24T23:05:17.147Z,102083.66
2018-06-24T23:07:46.727Z,102082.02
2018-06-24T23:10:16.155Z,102071.78
2018-06-24T23:12:45.567Z,102075.00
2018-06-24T23:15:15.049Z,102076.06
2018-06-24T23:17:44.637Z,102072.16
2018-06-24T23:20:14.210Z,102069.92
2018-06-24T23:22:43.651Z,102062.94
2018-06-24T23:25:13.238Z,102065.91
2018-06-24T23:27:42.852Z,102069.30
2018-06-24T23:30:12.252Z,102072.41
2018-06-24T23:32:41.689Z,102071.28
2018-06-24T23:35:11.168Z,102067.63
2018-06-24T23:37:40.586Z,102063.42
2018-06-24T23:40:10.019Z,102056.81
2018-06-24T23:42:39.454Z,102060.64
2018-06-24T23:45:08.986Z,102052.77
2018-06-24T23:47:38.430Z,102060.52
2018-06-24T23:50:07.932Z,102051.70
2018-06-24T23:52:37.423Z,102051.41
2018-06-24T23:55:07.277Z,102048.37
2018-06-24T23:57:36.703Z,102050.34
